Tiempo atmosférico en la estación meteorológica de Castellote, Teruel (755 m.)



Fecha
DESCASC
Temp. máxima en grados centígrados (hora)
DESCASC
Temp. mínima en grados centígrados (hora)
DESCASC
Temp. media en grados centígrados
DESCASC
Racha de viento máxima en m/sg (hora)
DESCASC
Velocidad máxima media en intervalos de 10 minutos(hora)
DESCASC
Precipitaciones diarias en mm
DESCASC
Precipitaciones de 00:00 a 06:00 en mm
DESCASC
Precipitaciones de 06:00 a 12:00 en mm
DESCASC
Precipitaciones de 12:00 a 18:00 en mm
DESCASC
Precipitaciones de 18:00 a 24:00 en mm
DESCASC
15-08-2019 30.4 (16:30) 17.7 (07:20) 24.1 11.39 (15:20) 6.67 (15:20) 0 0 0 0 0
14-08-2019 31 (18:20) 13.9 (00:00) 22.4 12.5 (13:50) 7.22 (14:30) 0 0 0 0 0
13-08-2019 24.9 (17:40) 14.3 (00:00) 19.6 12.5 (15:00) 7.5 (15:00) 0 0 0 0 0
12-08-2019 25.8 (15:30) 15.2 (00:00) 20.5 15 (16:00) 6.94 (16:30) 0 0 0 0 0
11-08-2019 29.3 (18:30) 20.3 (00:00) 24.8 11.11 (21:50) 6.67 (22:00) 0 0 0 0 0
10-08-2019 31.5 (15:20) 19.9 (00:00) 25.7 10.28 (12:20) 5 (12:20) 0 0 0 0 0
09-08-2019 37.5 (17:50) 22 (00:00) 29.8 16.94 (22:20) 12.22 (22:20) 0 0 0 0 0
08-08-2019 35.2 (16:20) 21.8 (00:00) 28.5 10 (17:20) 6.39 (01:10) 0 0 0 0 0
07-08-2019 28.5 (16:50) 21.2 (00:00) 24.9 7.22 (15:30) 4.17 (15:20) 0 0 0 0 0
06-08-2019 34.7 (16:00) 20.3 (00:00) 27.5 12.22 (17:30) 6.11 (17:40) 0 0 0 0 0
05-08-2019 33.9 (16:40) 19.7 (00:00) 26.8 9.72 (16:20) 6.11 (18:00) 0 0 0 0 0
04-08-2019 34 (15:50) 21.3 (00:00) 27.6 10.28 (15:50) 5 (15:50) 0.2 0 0 0 0.2
03-08-2019 33.6 (15:30) 19.3 (00:00) 26.4 12.22 (16:20) 7.78 (16:20) 0 0 0 0 0
02-08-2019 31.7 (18:30) 18.4 (00:00) 25.1 11.11 (14:30) 5.83 (15:00) 0 0 0 0 0
01-08-2019 32.1 (17:10) 18.6 (00:00) 25.3 10.56 (15:00) 4.72 (17:00) 0 0 0 0 0
31-07-2019 27.7 (16:30) 14.4 (00:00) 21.1 12.78 (17:40) 8.89 (17:40) 0 0 0 0 0
30-07-2019 26.7 (16:40) 15.4 (00:00) 21.1 20 (07:30) 8.61 (07:30) 0 0 0 0 0
29-07-2019 32.7 (17:30) 15.1 (00:00) 23.9 11.39 (16:30) 6.11 (16:30) 0 0 0 0 0
28-07-2019 27.2 (17:20) 13.5 (00:00) 20.4 16.67 (10:50) 9.72 (10:50) 0 0 0 0 0
27-07-2019 26.5 (15:20) 15.7 (00:00) 21.1 14.72 (18:20) 7.22 (18:00) 0.4 0 0.2 0 0.2
26-07-2019 26.8 (13:10) 19.2 (00:00) 23 8.89 (14:30) 4.44 (19:30) 3.8 0 0.4 0.8 2.6
25-07-2019 35.9 (14:50) 23.3 (00:00) 29.6 13.89 (15:10) 7.5 (15:10) 0 0 0 0 0
24-07-2019 37 (14:20) 21.5 (00:00) 29.3 13.06 (18:20) 7.5 (16:00) 0 0 0 0 0
23-07-2019 36.9 (14:30) 23.2 (00:00) 30.1 11.94 (14:10) 6.67 (13:40) 0 0 0 0 0
22-07-2019 36.4 (14:40) 20.7 (00:00) 28.6 11.11 (17:50) 6.11 (15:00) 0 0 0 0 0
21-07-2019 33.3 (15:30) 20.5 (00:00) 26.9 12.22 (16:20) 6.67 (15:20) 0 0 0 0 0
20-07-2019 35.4 (15:00) 21.7 (06:20) 28.6 12.5 (15:50) 6.94 (18:30) 0 0 0 0 0
19-07-2019 32.5 (15:50) 18.4 (00:00) 25.4 11.11 (16:10) 7.22 (16:10) 0 0 0 0 0

Gráficas

Temp. máximas Temp. mínimas Temp. medias Precipitaciones Rachas de viento máximas Velocidades máximas media en intervalos de 10 minutos

Datos horarios

Fecha y hora oficial Temperatura (ºC) Velocidad del viento (km/h) Dirección del viento Racha (km/h) Dirección de racha Precipitación (mm) Presión (hPa) Tendencia (hPa) Humedad (%)
2019-08-17 23:00:00 25.2 11 Sur 22 Sur 0 -- -- 65
2019-08-17 22:00:00 25.6 10 Sur 23 Sudoeste 0 -- -- 66
2019-08-17 21:00:00 26.1 10 Este 22 Sudeste 0 -- -- 66
2019-08-17 20:00:00 28.6 10 Sudeste 27 Sudeste 0 -- -- 58
2019-08-17 19:00:00 31.1 11 Sudeste 27 Sudeste 0 -- -- 51
2019-08-17 18:00:00 33.1 13 Sudeste 39 Este 0 -- -- 43
2019-08-17 17:00:00 34.6 11 Sudeste 35 Este 0 -- -- 32
2019-08-17 16:00:00 33.9 12 Este 27 Oeste 0 -- -- 33
2019-08-17 15:00:00 32.4 12 Nordeste 33 Este 0 -- -- 37
2019-08-17 14:00:00 31 12 Nordeste 37 Nordeste 0 -- -- 42
2019-08-17 13:00:00 30.8 13 Norte 30 Nordeste 0 -- -- 42
2019-08-17 12:00:00 30.7 10 Nordeste 23 Nordeste 0 -- -- 41
2019-08-17 11:00:00 29 6 Este 12 Este 0 -- -- 42
2019-08-17 10:00:00 26 3 Sudeste 9 Nordeste 0 -- -- 51
2019-08-17 09:00:00 23.4 4 Sudeste 8 Este 0 -- -- 59
2019-08-17 08:00:00 20.8 3 Este 6 Este 0 -- -- 73
2019-08-17 07:00:00 21.1 0 Calma 3 Sudeste 0 -- -- 73
2019-08-17 06:00:00 21.4 0 Calma 5 Sur 0 -- -- 71
2019-08-17 05:00:00 21.8 2 Sudeste 8 Este 0 -- -- 71
2019-08-17 04:00:00 21.5 4 Sudeste 8 Sur 0 -- -- 74
2019-08-17 03:00:00 21.7 0 Calma 8 Sudeste 0 -- -- 75
2019-08-17 02:00:00 22.3 4 Sur 8 Sudeste 0 -- -- 74
2019-08-17 01:00:00 23 6 Sur 10 Sur 0 -- -- 71
2019-08-17 00:00:00 23.8 3 Sudeste 11 Sudoeste 0 -- -- 69
2019-08-16 23:00:00 24.1 7 Sur 20 Sur 0 -- -- 67
2019-08-16 22:00:00 24.9 5 Sudeste 17 Este 0 -- -- 64
2019-08-16 21:00:00 26.4 10 Este 21 Este 0 -- -- 59
2019-08-16 20:00:00 28.7 9 Sudeste 24 Este 0 -- -- 52
2019-08-16 19:00:00 30.7 8 Sudeste 28 Sudeste 0 -- -- 44
2019-08-16 18:00:00 32.4 8 Este 28 Noroeste 0 -- -- 32
2019-08-16 17:00:00 32.5 10 Este 30 Este 0 -- -- 32
2019-08-16 16:00:00 32.1 9 Este 32 Este 0 -- -- 32
2019-08-16 15:00:00 30.7 12 Este 32 Este 0 -- -- 33
2019-08-16 14:00:00 29.4 8 Noroeste 23 Nordeste 0 -- -- 34
2019-08-16 13:00:00 25.9 11 Este 28 Nordeste 0 -- -- 39
2019-08-16 12:00:00 25.2 12 Nordeste 24 Nordeste 0 -- -- 40
2019-08-16 11:00:00 23.6 8 Norte 19 Nordeste 0 -- -- 42
2019-08-16 10:00:00 22.4 5 Este 11 Este 0 -- -- 45
2019-08-16 09:00:00 19.6 3 Nordeste 8 Este 0 -- -- 52
2019-08-16 08:00:00 17.5 4 Este 7 Este 0 -- -- 57
2019-08-16 07:00:00 17.7 0 Calma 3 Sudeste 0 -- -- 56
2019-08-16 06:00:00 18.3 0 Calma 5 Este 0 -- -- 54
2019-08-16 05:00:00 18.8 3 Sudeste 5 Este 0 -- -- 52
2019-08-16 04:00:00 19.3 0 Calma 4 Nordeste 0 -- -- 51
2019-08-16 03:00:00 20.3 3 Este 4 Sudeste 0 -- -- 49
2019-08-16 02:00:00 21 0 Calma 26 Oeste 0 -- -- 46
2019-08-16 01:00:00 21.7 17 Oeste 28 Oeste 0 -- -- 46
2019-08-16 00:00:00 22.2 14 Oeste 34 Noroeste 0 -- -- 43
2019-08-15 23:00:00 23.5 19 Noroeste 31 Noroeste 0 -- -- 39
2019-08-15 22:00:00 24.5 18 Noroeste 38 Oeste 0 -- -- 36
2019-08-15 21:00:00 26 7 Sudoeste 24 Este 0 -- -- 34
2019-08-15 20:00:00 27.8 8 Sudeste 23 Este 0 -- -- 39
2019-08-15 19:00:00 28.6 15 Este 33 Este 0 -- -- 40
2019-08-15 18:00:00 29 15 Este 35 Este 0 -- -- 39
2019-08-15 17:00:00 29.5 15 Este 32 Este 0 -- -- 39
2019-08-15 16:00:00 29.4 13 Este 41 Este 0 -- -- 38
2019-08-15 15:00:00 29.1 21 Este 40 Este 0 -- -- 40
2019-08-15 14:00:00 28 12 Este 36 Este 0 -- -- 43
2019-08-15 13:00:00 26.7 18 Este 33 Este 0 -- -- 45
2019-08-15 12:00:00 25.6 11 Este 21 Este 0 -- -- 48
2019-08-15 11:00:00 24 6 Este 24 Nordeste 0 -- -- 52
2019-08-15 10:00:00 22.5 8 Este 15 Este 0 -- -- 52
2019-08-15 09:00:00 20 2 Este 10 Norte 0 -- -- 49
2019-08-15 08:00:00 17.9 2 Este 9 Noroeste 0 -- -- 54
2019-08-15 07:00:00 18.2 3 Sur 16 Oeste 0 -- -- 50
2019-08-15 06:00:00 19.4 2 Sudoeste 11 Oeste 0 -- -- 55
2019-08-15 05:00:00 19.6 3 Sudoeste 11 Este 0 -- -- 47
2019-08-15 04:00:00 20.1 6 Este 15 Noroeste 0 -- -- 45
2019-08-15 03:00:00 21.5 3 Oeste 30 Oeste 0 -- -- 47
2019-08-15 02:00:00 23 13 Oeste 27 Oeste 0 -- -- 40
2019-08-15 01:00:00 22.3 3 Sudeste 10 Noroeste 0 -- -- 35
2019-08-15 00:00:00 24.3 2 Oeste 7 Noroeste 0 -- -- 32
2019-08-14 23:00:00 24.4 2 Nordeste 8 Norte 0 -- -- 31
2019-08-14 22:00:00 25.6 3 Nordeste 9 Este 0 -- -- 29
2019-08-14 21:00:00 26.7 4 Este 19 Este 0 -- -- 27
2019-08-14 20:00:00 28.2 12 Este 24 Este 0 -- -- 25
2019-08-14 19:00:00 29.6 8 Sudeste 30 Este 0 -- -- 23
2019-08-14 18:00:00 30.3 10 Sur 27 Este 0 -- -- 22
2019-08-14 17:00:00 30.2 19 Este 34 Este 0 -- -- 22
2019-08-14 16:00:00 29.9 9 Sudeste 41 Oeste 0 -- -- 22
2019-08-14 15:00:00 29 12 Este 44 Este 0 -- -- 23
2019-08-14 14:00:00 28 20 Este 45 Este 0 -- -- 24
2019-08-14 13:00:00 27 19 Este 35 Este 0 -- -- 28
2019-08-14 12:00:00 25.5 15 Este 26 Este 0 -- -- 34
2019-08-14 11:00:00 23.1 6 Norte 14 Norte 0 -- -- 41
2019-08-14 10:00:00 20.7 5 Nordeste 9 Este 0 -- -- 47
2019-08-14 09:00:00 17.3 3 Este 10 Este 0 -- -- 48
2019-08-14 08:00:00 14.1 6 Este 11 Este 0 -- -- 58
2019-08-14 07:00:00 13.9 5 Este 9 Este 0 -- -- 57
2019-08-14 06:00:00 15.6 5 Este 9 Este 0 -- -- 52
2019-08-14 05:00:00 15.2 5 Este 10 Este 0 -- -- 54
2019-08-14 04:00:00 15.6 4 Este 10 Sudeste 0 -- -- 53
2019-08-14 03:00:00 16.5 4 Este 9 Sudeste 0 -- -- 51
2019-08-14 02:00:00 17.8 4 Este 35 Oeste 0 -- -- 48
2019-08-14 01:00:00 18.4 25 Oeste 38 Oeste 0 -- -- 47
2019-08-14 00:00:00 19.4 12 Oeste 33 Noroeste 0 -- -- 42
2019-08-13 23:00:00 20.2 13 Noroeste 24 Noroeste 0 -- -- 39
2019-08-13 22:00:00 21.1 2 Este 9 Norte 0 -- -- 37
2019-08-13 21:00:00 22.2 6 Este 24 Este 0 -- -- 35
2019-08-13 20:00:00 23.3 9 Este 24 Este 0 -- -- 35
2019-08-13 19:00:00 24.3 10 Este 37 Este 0 -- -- 34
2019-08-13 18:00:00 24.2 21 Este 35 Este 0 -- -- 34
2019-08-13 17:00:00 24 14 Este 35 Este 0 -- -- 35
2019-08-13 16:00:00 24.3 7 Este 40 Este 0 -- -- 34
2019-08-13 15:00:00 24.1 27 Este 45 Este 0 -- -- 36
2019-08-13 14:00:00 23.7 9 Este 30 Este 0 -- -- 36
2019-08-13 13:00:00 21.8 11 Este 24 Este 0 -- -- 38
2019-08-13 12:00:00 19.3 8 Este 18 Este 0 -- -- 42
2019-08-13 11:00:00 17 6 Oeste 19 Noroeste 0 -- -- 47
2019-08-13 10:00:00 17 6 Sudoeste 19 Oeste 0 -- -- 48
2019-08-13 09:00:00 15.3 8 Oeste 18 Noroeste 0 -- -- 54
2019-08-13 08:00:00 14.3 2 Sur 20 Oeste 0 -- -- 58
2019-08-13 07:00:00 14.4 6 Sur 20 Sur 0 -- -- 59
2019-08-13 06:00:00 14.4 8 Nordeste 28 Oeste 0 -- -- 60
2019-08-13 05:00:00 14.8 7 Noroeste 25 Nordeste 0 -- -- 56
2019-08-13 04:00:00 14.7 20 Oeste 36 Oeste 0 -- -- 55
2019-08-13 03:00:00 14.6 26 Oeste 41 Noroeste 0 -- -- 58
2019-08-13 02:00:00 14.7 15 Oeste 32 Este 0 -- -- 60
2019-08-13 01:00:00 15.6 12 Sudoeste 37 Oeste 0 -- -- 57
2019-08-13 00:00:00 16.4 14 Oeste 35 Noroeste 0 -- -- 53
2019-08-12 23:00:00 17.3 5 Oeste 30 Oeste 0 -- -- 48
2019-08-12 22:00:00 18.5 8 Nordeste 38 Este 0 -- -- 44
2019-08-12 21:00:00 20.1 10 Este 36 Este 0 -- -- 40
2019-08-12 20:00:00 22.7 10 Sudeste 37 Oeste 0 -- -- 35
2019-08-12 19:00:00 24.5 10 Sudeste 43 Nordeste 0 -- -- 31
2019-08-12 18:00:00 24.8 17 Oeste 45 Oeste 0 -- -- 31
2019-08-12 17:00:00 25.1 15 Noroeste 46 Oeste 0 -- -- 31
2019-08-12 16:00:00 24.5 23 Oeste 54 Oeste 0 -- -- 33
2019-08-12 15:00:00 24.4 18 Noroeste 45 Oeste 0 -- -- 34
2019-08-12 14:00:00 23.2 14 Noroeste 37 Oeste 0 -- -- 37
2019-08-12 13:00:00 21.9 13 Oeste 39 Oeste 0 -- -- 40
2019-08-12 12:00:00 20.4 18 Oeste 34 Oeste 0 -- -- 46
2019-08-12 11:00:00 19.7 7 Oeste 33 Oeste 0 -- -- 49
2019-08-12 10:00:00 18.1 9 Sudoeste 29 Noroeste 0 -- -- 55
2019-08-12 09:00:00 15.8 13 Oeste 36 Oeste 0 -- -- 64
2019-08-12 08:00:00 15.4 13 Noroeste 32 Norte 0 -- -- 67
2019-08-12 07:00:00 15.2 10 Oeste 37 Noroeste 0 -- -- 70
2019-08-12 06:00:00 15.7 20 Oeste 38 Noroeste 0 -- -- 67
2019-08-12 05:00:00 16.3 16 Oeste 35 Oeste 0 -- -- 65
2019-08-12 04:00:00 17 14 Oeste 38 Oeste 0 -- -- 61
2019-08-12 03:00:00 17.6 23 Oeste 39 Oeste 0 -- -- 60
2019-08-12 02:00:00 18.2 21 Oeste 37 Noroeste 0 -- -- 58
2019-08-12 01:00:00 19.5 19 Oeste 35 Noroeste 0 -- -- 56
2019-08-12 00:00:00 21.5 17 Noroeste 36 Oeste 0 -- -- 50
2019-08-11 23:00:00 23.3 5 Sudeste 29 Noroeste 0 -- -- 44
2019-08-11 22:00:00 25.1 24 Noroeste 40 Oeste 0 -- -- 40
2019-08-11 21:00:00 26.3 7 Este 14 Oeste 0 -- -- 44
2019-08-11 20:00:00 27.6 6 Oeste 15 Oeste 0 -- -- 42
2019-08-11 19:00:00 27.9 5 Sur 24 Este 0 -- -- 42
2019-08-11 18:00:00 28.5 8 Este 28 Este 0 -- -- 40
2019-08-11 17:00:00 29.1 10 Este 31 Este 0 -- -- 40
2019-08-11 16:00:00 28.4 17 Este 36 Este 0 -- -- 41
2019-08-11 15:00:00 28.2 13 Este 38 Nordeste 0 -- -- 42
2019-08-11 14:00:00 28 16 Este 30 Este 0 -- -- 44
2019-08-11 13:00:00 26.9 10 Este 26 Este 0 -- -- 48
2019-08-11 12:00:00 24.9 9 Nordeste 25 Este 0 -- -- 51
2019-08-11 11:00:00 22.7 13 Este 28 Este 0 -- -- 57
2019-08-11 10:00:00 21.7 13 Nordeste 26 Norte 0 -- -- 60
2019-08-11 09:00:00 21.4 4 Nordeste 13 Norte 0 -- -- 69
2019-08-11 08:00:00 20.6 4 Nordeste 15 Sudeste 0 -- -- 79
2019-08-11 07:00:00 20.4 7 Este 13 Sudeste 0 -- -- 79
2019-08-11 06:00:00 20.8 10 Este 19 Nordeste 0 -- -- 75
2019-08-11 05:00:00 21.7 3 Nordeste 11 Norte 0 -- -- 70
2019-08-11 04:00:00 22.3 0 Calma 3 Nordeste 0 -- -- 72
2019-08-11 03:00:00 22.7 0 Calma 4 Este 0 -- -- 71
2019-08-11 02:00:00 23.2 3 Oeste 9 Este 0 -- -- 69
2019-08-11 01:00:00 23.2 6 Este 10 Este 0 -- -- 69
2019-08-11 00:00:00 24.1 4 Sur 12 Sudeste 0 -- -- 67
2019-08-10 23:00:00 24.6 5 Este 11 Este 0 -- -- 66
2019-08-10 22:00:00 25.6 8 Este 17 Este 0 -- -- 62
2019-08-10 21:00:00 26.6 14 Este 27 Este 0 -- -- 59
2019-08-10 20:00:00 28.2 12 Este 22 Este 0 -- -- 55
2019-08-10 19:00:00 28.4 13 Este 28 Este 0 -- -- 55
2019-08-10 18:00:00 30 14 Este 33 Este 0 -- -- 36
2019-08-10 17:00:00 30.9 10 Norte 32 Nordeste 0 -- -- 34
2019-08-10 16:00:00 31 13 Este 37 Este 0 -- -- 35
2019-08-10 15:00:00 30.9 9 Este 27 Este 0 -- -- 37
2019-08-10 14:00:00 30.1 12 Este 32 Nordeste 0 -- -- 38
2019-08-10 13:00:00 28.2 9 Norte 37 Este 0 -- -- 42
2019-08-10 12:00:00 27.3 14 Este 31 Este 0 -- -- 44
2019-08-10 11:00:00 25.9 10 Este 24 Este 0 -- -- 48
2019-08-10 10:00:00 24.1 8 Este 15 Este 0 -- -- 54
2019-08-10 09:00:00 22.5 5 Este 9 Este 0 -- -- 61
2019-08-10 08:00:00 19.9 2 Sur 14 Oeste 0 -- -- 72
2019-08-10 07:00:00 20.5 0 Calma 9 Norte 0 -- -- 72
2019-08-10 06:00:00 21 8 Norte 15 Norte 0 -- -- 66
2019-08-10 05:00:00 21.5 6 Norte 13 Nordeste 0 -- -- 72
2019-08-10 04:00:00 22.1 3 Oeste 7 Sudoeste 0 -- -- 72
2019-08-10 03:00:00 22.6 0 Calma 18 Norte 0 -- -- 69
2019-08-10 02:00:00 23.3 9 Nordeste 21 Nordeste 0 -- -- 67
2019-08-10 01:00:00 25.6 5 Norte 33 Oeste 0 -- -- 56
2019-08-10 00:00:00 29.4 11 Noroeste 37 Sudoeste 0 -- -- 38
2019-08-09 23:00:00 30.7 22 Sudoeste 61 Oeste 0 -- -- 33
2019-08-09 22:00:00 31.8 20 Oeste 37 Sudoeste 0 -- -- 29
2019-08-09 21:00:00 33.6 16 Sudoeste 32 Oeste 0 -- -- 25
2019-08-09 20:00:00 36.5 14 Sudoeste 31 Oeste 0 -- -- 20
2019-08-09 19:00:00 37 18 Oeste 36 Oeste 0 -- -- 20
2019-08-09 18:00:00 37.3 20 Oeste 40 Sudoeste 0 -- -- 19
2019-08-09 17:00:00 37.3 19 Oeste 36 Sudoeste 0 -- -- 19
2019-08-09 16:00:00 36.6 20 Sudoeste 39 Oeste 0 -- -- 21
2019-08-09 15:00:00 36.2 10 Sudoeste 37 Oeste 0 -- -- 22
2019-08-09 14:00:00 34.7 19 Oeste 36 Oeste 0 -- -- 22
2019-08-09 13:00:00 34 19 Sudoeste 30 Oeste 0 -- -- 21
2019-08-09 12:00:00 32.4 15 Oeste 33 Oeste 0 -- -- 24
2019-08-09 11:00:00 32 9 Sudoeste 19 Oeste 0 -- -- 29
2019-08-09 10:00:00 28.8 4 Este 10 Nordeste 0 -- -- 36
2019-08-09 09:00:00 25.1 7 Nordeste 14 Este 0 -- -- 43
2019-08-09 08:00:00 22 6 Este 10 Este 0 -- -- 50
2019-08-09 07:00:00 22.7 2 Este 8 Sudeste 0 -- -- 48
2019-08-09 06:00:00 24.1 2 Oeste 7 Sudeste 0 -- -- 44
2019-08-09 05:00:00 23.4 2 Noroeste 5 Sudeste 0 -- -- 47
2019-08-09 04:00:00 24.2 5 Sudeste 9 Sudeste 0 -- -- 46
2019-08-09 03:00:00 24.6 2 Sudoeste 10 Este 0 -- -- 46
2019-08-09 02:00:00 25.4 5 Este 9 Sudeste 0 -- -- 45
2019-08-09 01:00:00 25.4 4 Este 9 Sudeste 0 -- -- 47
2019-08-09 00:00:00 26.1 3 Sur 12 Sur 0 -- -- 46
2019-08-08 23:00:00 26.7 6 Sudoeste 12 Sur 0 -- -- 44
2019-08-08 22:00:00 27.6 9 Sur 15 Este 0 -- -- 42
2019-08-08 21:00:00 29.1 8 Sudeste 24 Este 0 -- -- 40
2019-08-08 20:00:00 31 12 Este 28 Este 0 -- -- 37
2019-08-08 19:00:00 31.5 11 Este 27 Este 0 -- -- 36
2019-08-08 18:00:00 32.6 9 Este 36 Este 0 -- -- 35
2019-08-08 17:00:00 33.9 10 Este 24 Este 0 -- -- 28
2019-08-08 16:00:00 34.6 9 Sudeste 26 Nordeste 0 -- -- 27
2019-08-08 15:00:00 34.4 5 Sudeste 23 Nordeste 0 -- -- 28
2019-08-08 14:00:00 32.2 8 Este 23 Nordeste 0 -- -- 30
2019-08-08 13:00:00 30.8 8 Sudeste 20 Sur 0 -- -- 32
2019-08-08 12:00:00 29.2 10 Este 22 Este 0 -- -- 35
2019-08-08 11:00:00 27.9 9 Este 21 Este 0 -- -- 37
2019-08-08 10:00:00 25.2 6 Sudoeste 23 Sudoeste 0 -- -- 43
2019-08-08 09:00:00 22.8 3 Oeste 9 Sur 0 -- -- 45
2019-08-08 08:00:00 22 4 Sudeste 8 Sudeste 0 -- -- 49
2019-08-08 07:00:00 21.8 4 Sudeste 10 Este 0 -- -- 49
2019-08-08 06:00:00 22.1 2 Sur 8 Este 0 -- -- 45
2019-08-08 05:00:00 22.7 3 Sudeste 9 Sudeste 0 -- -- 42
2019-08-08 04:00:00 23.7 6 Sudeste 13 Noroeste 0 -- -- 39
2019-08-08 03:00:00 24.8 7 Oeste 21 Oeste 0 -- -- 39
2019-08-08 02:00:00 25.4 15 Oeste 29 Oeste 0 -- -- 36
2019-08-08 01:00:00 26.5 21 Oeste 27 Oeste 0 -- -- 31
2019-08-08 00:00:00 25.4 3 Sudeste 12 Sur 0 -- -- 44
2019-08-07 23:00:00 25.5 3 Sudeste 11 Sudoeste 0 -- -- 44
2019-08-07 22:00:00 25.6 2 Sudeste 9 Sudeste 0 -- -- 43
2019-08-07 21:00:00 26.2 5 Nordeste 18 Este 0 -- -- 42
2019-08-07 20:00:00 27.1 8 Nordeste 15 Nordeste 0 -- -- 40
2019-08-07 19:00:00 28.1 5 Sudoeste 23 Nordeste 0 -- -- 41
2019-08-07 18:00:00 27.8 6 Nordeste 19 Este 0 -- -- 42
2019-08-07 17:00:00 28.5 9 Este 21 Este 0 -- -- 42
2019-08-07 16:00:00 28.1 9 Este 26 Nordeste 0 -- -- 42
2019-08-07 15:00:00 27.7 6 Norte 17 Este 0 -- -- 43
2019-08-07 14:00:00 27.1 3 Oeste 9 Sudoeste 0 -- -- 45
2019-08-07 13:00:00 25.4 4 Sudeste 12 Este 0 -- -- 51
2019-08-07 12:00:00 24.5 4 Este 14 Este 0 -- -- 55
2019-08-07 11:00:00 23.5 8 Este 14 Este 0 -- -- 59
2019-08-07 10:00:00 22.3 4 Este 19 Este 0 -- -- 64
2019-08-07 09:00:00 21.3 7 Nordeste 14 Norte 0 -- -- 67
2019-08-07 08:00:00 21.2 0 Calma 6 Este 0 -- -- 67
2019-08-07 07:00:00 21.3 0 Calma 6 Sudoeste 0 -- -- 67
2019-08-07 06:00:00 21.8 2 Sur 13 Norte 0 -- -- 63
2019-08-07 05:00:00 22.8 5 Oeste 15 Norte 0 -- -- 42
2019-08-07 04:00:00 25 5 Nordeste 14 Este 0 -- -- 32
2019-08-07 03:00:00 26.1 7 Sudeste 12 Sudeste 0 -- -- 31
2019-08-07 02:00:00 25.9 0 Calma 13 Sur 0 -- -- 34
2019-08-07 01:00:00 25.4 7 Sudoeste 13 Sur 0 -- -- 43
2019-08-07 00:00:00 25.6 4 Sudoeste 10 Sudoeste 0 -- -- 61
2019-08-06 23:00:00 26.6 6 Sudoeste 12 Sur 0 -- -- 62
2019-08-06 22:00:00 27.4 4 Sur 15 Este 0 -- -- 57
2019-08-06 21:00:00 28.6 12 Este 23 Este 0 -- -- 53
2019-08-06 20:00:00 31.2 10 Sudeste 22 Sur 0 -- -- 44
2019-08-06 19:00:00 32.2 9 Este 31 Este 0 -- -- 39
2019-08-06 18:00:00 32.9 19 Este 44 Este 0 -- -- 37
2019-08-06 17:00:00 33.6 17 Este 28 Este 0 -- -- 30
2019-08-06 16:00:00 34.7 6 Sur 25 Este 0 -- -- 30
2019-08-06 15:00:00 32.7 9 Nordeste 41 Este 0 -- -- 33
2019-08-06 14:00:00 32.1 8 Este 32 Este 0 -- -- 37
2019-08-06 13:00:00 29.6 9 Nordeste 30 Este 0 -- -- 44
2019-08-06 12:00:00 28.8 12 Este 26 Nordeste 0 -- -- 47
2019-08-06 11:00:00 27.2 11 Nordeste 20 Nordeste 0 -- -- 50
2019-08-06 10:00:00 25.4 3 Este 11 Sudeste 0 -- -- 52
2019-08-06 09:00:00 22.6 3 Sudeste 7 Este 0 -- -- 63
2019-08-06 08:00:00 20.3 3 Este 9 Oeste 0 -- -- 69
2019-08-06 07:00:00 20.6 3 Noroeste 14 Noroeste 0 -- -- 66
2019-08-06 06:00:00 23 4 Norte 13 Nordeste 0 -- -- 56
2019-08-06 05:00:00 23.8 8 Norte 20 Nordeste 0 -- -- 54
2019-08-06 04:00:00 24.3 4 Este 13 Sur 0 -- -- 51
2019-08-06 03:00:00 24.1 3 Sudoeste 10 Sur 0 -- -- 53
2019-08-06 02:00:00 24.1 4 Sur 8 Sur 0 -- -- 55
2019-08-06 01:00:00 24.2 3 Sur 10 Sudoeste 0 -- -- 60
2019-08-06 00:00:00 24.8 5 Sudoeste 15 Sur 0 -- -- 59
2019-08-05 23:00:00 25.6 11 Sur 18 Sudeste 0 -- -- 56
2019-08-05 22:00:00 26.5 5 Sudoeste 22 Este 0 -- -- 54
2019-08-05 21:00:00 27.6 14 Este 27 Este 0 -- -- 50
2019-08-05 20:00:00 30 16 Este 27 Este 0 -- -- 43
2019-08-05 19:00:00 30.7 14 Este 29 Este 0 -- -- 41
2019-08-05 18:00:00 32 22 Este 35 Este 0 -- -- 41
2019-08-05 17:00:00 33.6 15 Este 35 Este 0 -- -- 38
2019-08-05 16:00:00 33.6 13 Este 31 Este -- -- -- 37
2019-08-05 15:00:00 32.7 10 Nordeste 25 Este 0 -- -- 39
2019-08-05 14:00:00 31.4 11 Este 31 Nordeste -- -- -- 41
2019-08-05 13:00:00 30 9 Nordeste 21 Nordeste 0 -- -- 43
2019-08-05 12:00:00 28.3 8 Nordeste 17 Nordeste 0 -- -- 47
2019-08-05 11:00:00 26.1 7 Norte 15 Norte 0 -- -- 54
2019-08-05 10:00:00 24 2 Sur 7 Sudeste 0 -- -- 59
2019-08-05 09:00:00 22.1 3 Este 5 Este 0 -- -- 64
2019-08-05 08:00:00 19.8 0 Calma 3 Nordeste 0 -- -- 69
2019-08-05 07:00:00 19.9 0 Calma 4 Norte 0 -- -- 68
2019-08-05 06:00:00 20.7 2 Noroeste 10 Este 0 -- -- 66
2019-08-05 05:00:00 21.8 6 Norte 12 Norte 0 -- -- 63
2019-08-05 04:00:00 22.2 3 Oeste 7 Este 0 -- -- 58
2019-08-05 03:00:00 22.9 4 Norte 12 Norte 0 -- -- 61
2019-08-05 02:00:00 22.9 7 Sudeste 13 Sudeste 0 -- -- 61
2019-08-05 01:00:00 23.6 6 Sur 22 Sur 0 -- -- 63
2019-08-05 00:00:00 24.6 12 Sur 20 Sur 0 -- -- 60
2019-08-04 23:00:00 25.2 7 Sur 22 Sudoeste 0 -- -- 56
2019-08-04 22:00:00 25.7 11 Sur 18 Sudoeste 0 -- -- 57
2019-08-04 21:00:00 26.6 9 Sur 19 Sur 0.2 -- -- 58
2019-08-04 20:00:00 28.5 7 Sur 26 Sur 0 -- -- 56
2019-08-04 19:00:00 30.2 11 Sudeste 28 Sur 0 -- -- 45
2019-08-04 18:00:00 31.6 13 Sudeste 27 Sur 0 -- -- 44
2019-08-04 17:00:00 33 12 Sudeste 28 Sudeste 0 -- -- 40
2019-08-04 16:00:00 33.1 15 Este 37 Este 0 -- -- 36
2019-08-04 15:00:00 32.5 12 Este 34 Sudeste 0 -- -- 38
2019-08-04 14:00:00 32.1 11 Nordeste 29 Este 0 -- -- 39
2019-08-04 13:00:00 30.7 10 Noroeste 27 Nordeste 0 -- -- 43
2019-08-04 12:00:00 29.5 7 Norte 17 Nordeste 0 -- -- 44
2019-08-04 11:00:00 26.9 7 Norte 18 Nordeste 0 -- -- 51
2019-08-04 10:00:00 25.3 4 Este 9 Norte 0 -- -- 53
2019-08-04 09:00:00 23.3 0 Calma 4 Este 0 -- -- 55
2019-08-04 08:00:00 21.3 0 Calma 5 Nordeste 0 -- -- 57
2019-08-04 07:00:00 21.7 0 Calma 5 Sudoeste 0 -- -- 56
2019-08-04 06:00:00 22.6 4 Oeste 6 Oeste 0 -- -- 54
2019-08-04 05:00:00 23.3 0 Calma 5 Norte 0 -- -- 52
2019-08-04 04:00:00 23.5 0 Calma 7 Noroeste 0 -- -- 52
2019-08-04 03:00:00 24.2 3 Nordeste 8 Norte 0 -- -- 50
2019-08-04 02:00:00 23.7 4 Sur 10 Sur 0 -- -- 51
2019-08-04 01:00:00 24 2 Sur 14 Sudeste 0 -- -- 52
2019-08-04 00:00:00 24.6 4 Sudeste 14 Sur 0 -- -- 53
2019-08-03 23:00:00 25.4 10 Sur 20 Sudoeste 0 -- -- 51
2019-08-03 22:00:00 25.3 9 Sudeste 18 Sudeste 0 -- -- 52
2019-08-03 21:00:00 26.7 9 Sudeste 27 Este 0 -- -- 51
2019-08-03 20:00:00 27.8 25 Este 35 Este 0 -- -- 49
2019-08-03 19:00:00 29.7 14 Este 33 Este 0 -- -- 45
2019-08-03 18:00:00 31.6 9 Este 34 Este 0 -- -- 40
2019-08-03 17:00:00 32.7 15 Este 44 Este 0 -- -- 37
2019-08-03 16:00:00 33.6 19 Este 36 Este 0 -- -- 35
2019-08-03 15:00:00 33.4 14 Este 35 Este 0 -- -- 31
2019-08-03 14:00:00 33.1 13 Este 32 Este 0 -- -- 30
2019-08-03 13:00:00 31.7 10 Nordeste 28 Nordeste 0 -- -- 33
2019-08-03 12:00:00 30 8 Este 16 Este 0 -- -- 34
2019-08-03 11:00:00 27.5 4 Nordeste 13 Este 0 -- -- 38
2019-08-03 10:00:00 25.1 3 Este 7 Este 0 -- -- 44
2019-08-03 09:00:00 22.4 3 Este 7 Nordeste 0 -- -- 52
2019-08-03 08:00:00 19.5 4 Este 8 Este 0 -- -- 60
2019-08-03 07:00:00 19.7 5 Este 6 Este 0 -- -- 59
2019-08-03 06:00:00 20.4 2 Nordeste 5 Este 0 -- -- 57
2019-08-03 05:00:00 21.1 2 Este 7 Este 0 -- -- 56
2019-08-03 04:00:00 22.1 0 Calma 5 Este 0 -- -- 53
2019-08-03 03:00:00 22.4 0 Calma 4 Sudeste 0 -- -- 52
2019-08-03 02:00:00 23 0 Calma 6 Sur 0 -- -- 51
2019-08-03 01:00:00 24 4 Sudeste 9 Sur 0 -- -- 48
2019-08-03 00:00:00 24.5 5 Sur 9 Sudoeste 0 -- -- 47
2019-08-02 23:00:00 25 4 Sudeste 9 Sudeste 0 -- -- 46
2019-08-02 22:00:00 26.5 6 Sudeste 12 Sur 0 -- -- 43
2019-08-02 21:00:00 28.6 5 Nordeste 14 Este 0 -- -- 36
2019-08-02 20:00:00 30.2 6 Este 19 Este 0 -- -- 35
2019-08-02 19:00:00 30.8 7 Este 28 Este 0 -- -- 34
2019-08-02 18:00:00 31.4 8 Este 24 Este 0 -- -- 33
2019-08-02 17:00:00 31.1 12 Este 31 Este 0 -- -- 35
2019-08-02 16:00:00 30.1 15 Este 35 Este 0 -- -- 38
2019-08-02 15:00:00 29.8 21 Este 40 Este 0 -- -- 40
2019-08-02 14:00:00 29.1 13 Este 31 Este 0 -- -- 42
2019-08-02 13:00:00 27.7 9 Este 27 Este 0 -- -- 46
2019-08-02 12:00:00 25.8 12 Este 27 Este 0 -- -- 52
2019-08-02 11:00:00 24.4 8 Este 18 Este 0 -- -- 56
2019-08-02 10:00:00 22.5 5 Nordeste 12 Nordeste 0 -- -- 62
2019-08-02 09:00:00 20.4 3 Sudeste 7 Este 0 -- -- 70
2019-08-02 08:00:00 18.4 2 Sudoeste 8 Noroeste 0 -- -- 77
2019-08-02 07:00:00 18.6 3 Sudoeste 23 Oeste 0 -- -- 76
2019-08-02 06:00:00 19.4 8 Oeste 26 Oeste 0 -- -- 73
2019-08-02 05:00:00 20 13 Oeste 26 Oeste 0 -- -- 71
2019-08-02 04:00:00 20.4 3 Oeste 24 Noroeste 0 -- -- 70
2019-08-02 03:00:00 21.2 10 Oeste 22 Oeste 0 -- -- 68
2019-08-02 02:00:00 22.7 8 Norte 23 Noroeste 0 -- -- 57
2019-08-02 01:00:00 23.5 9 Noroeste 19 Norte 0 -- -- 53
2019-08-02 00:00:00 23.4 5 Noroeste 12 Norte 0 -- -- 57
2019-08-01 23:00:00 23.7 5 Este 12 Sudeste 0 -- -- 54
2019-08-01 22:00:00 25.2 7 Sudeste 19 Sudeste 0 -- -- 52
2019-08-01 21:00:00 27.9 8 Este 17 Este 0 -- -- 47
2019-08-01 20:00:00 29.7 5 Sur 15 Este 0 -- -- 43
2019-08-01 19:00:00 29.3 9 Este 20 Sudeste 0 -- -- 44
2019-08-01 18:00:00 30.8 9 Nordeste 28 Este 0 -- -- 36
2019-08-01 17:00:00 31.4 17 Sudeste 33 Este 0 -- -- 35
2019-08-01 16:00:00 31.7 17 Este 29 Nordeste 0 -- -- 35
2019-08-01 15:00:00 30.7 13 Nordeste 38 Este 0 -- -- 36
2019-08-01 14:00:00 29.6 7 Nordeste 36 Este 0 -- -- 38
2019-08-01 13:00:00 29.2 9 Este 25 Este 0 -- -- 38
2019-08-01 12:00:00 27.9 9 Nordeste 22 Nordeste 0 -- -- 39
2019-08-01 11:00:00 25.8 4 Sudoeste 15 Nordeste 0 -- -- 44
2019-08-01 10:00:00 23 6 Nordeste 12 Norte 0 -- -- 52
2019-08-01 09:00:00 21.1 2 Sudeste 10 Este 0 -- -- 59
2019-08-01 08:00:00 18.9 0 Calma 8 Este 0 -- -- 69
2019-08-01 07:00:00 18.9 5 Sudeste 24 Sudeste 0 -- -- 70
2019-08-01 06:00:00 19.2 8 Sudeste 23 Sur 0 -- -- 70
2019-08-01 05:00:00 19.4 6 Este 18 Sur 0 -- -- 68
2019-08-01 04:00:00 19.2 6 Sudeste 15 Sudeste 0 -- -- 72
2019-08-01 03:00:00 19.4 10 Sur 19 Sudoeste 0 -- -- 74
2019-08-01 02:00:00 19.6 7 Sur 14 Sur 0 -- -- 77
2019-08-01 01:00:00 20 6 Sudeste 13 Sudeste 0 -- -- 77
2019-08-01 00:00:00 20.4 8 Este 12 Sudeste 0 -- -- 76
2019-07-31 23:00:00 21.4 7 Este 13 Sudeste 0 -- -- 71
2019-07-31 22:00:00 22.5 6 Sur 19 Sur 0 -- -- 66
2019-07-31 21:00:00 23.2 10 Sur 27 Sudeste 0 -- -- 64
2019-07-31 20:00:00 24 13 Este 34 Este 0 -- -- 62
2019-07-31 19:00:00 25.7 14 Este 37 Este 0 -- -- 56
2019-07-31 18:00:00 26.2 19 Este 46 Este 0 -- -- 53
2019-07-31 17:00:00 27.1 25 Este 46 Este 0 -- -- 50
2019-07-31 16:00:00 26.9 19 Este 38 Este 0 -- -- 48
2019-07-31 15:00:00 27.3 20 Este 44 Este 0 -- -- 44
2019-07-31 14:00:00 27.1 22 Este 35 Este 0 -- -- 41
2019-07-31 13:00:00 24.6 13 Este 24 Nordeste 0 -- -- 38
2019-07-31 12:00:00 22.8 9 Norte 20 Nordeste 0 -- -- 39
2019-07-31 11:00:00 20.1 6 Este 15 Este 0 -- -- 44
2019-07-31 10:00:00 18.7 4 Norte 13 Este 0 -- -- 48
2019-07-31 09:00:00 16.3 5 Este 8 Este 0 -- -- 56
2019-07-31 08:00:00 14.8 0 Calma 4 Nordeste 0 -- -- 59
2019-07-31 07:00:00 14.5 0 Calma 3 Este 0 -- -- 59
2019-07-31 06:00:00 14.7 2 Nordeste 4 Nordeste 0 -- -- 58
2019-07-31 05:00:00 15.1 4 Este 5 Este 0 -- -- 57
2019-07-31 04:00:00 15.8 2 Este 25 Oeste 0 -- -- 55
2019-07-31 03:00:00 16.5 16 Oeste 28 Oeste 0 -- -- 52
2019-07-31 02:00:00 17 22 Oeste 35 Oeste 0 -- -- 51
2019-07-31 01:00:00 18 14 Oeste 24 Sudoeste 0 -- -- 49
2019-07-31 00:00:00 19.3 9 Noroeste 21 Oeste 0 -- -- 46
2019-07-30 23:00:00 20.5 8 Norte 32 Noroeste 0 -- -- 43
2019-07-30 22:00:00 21.9 14 Oeste 27 Oeste 0 -- -- 39
2019-07-30 21:00:00 23.3 8 Sur 35 Nordeste 0 -- -- 37
2019-07-30 20:00:00 24.9 9 Sudeste 32 Este 0 -- -- 36
2019-07-30 19:00:00 25.8 11 Este 29 Este 0 -- -- 34
2019-07-30 18:00:00 26.3 8 Este 36 Este 0 -- -- 34
2019-07-30 17:00:00 26.6 15 Este 44 Este 0 -- -- 34
2019-07-30 16:00:00 26.4 19 Este 34 Este 0 -- -- 36
2019-07-30 15:00:00 26.1 20 Este 42 Este 0 -- -- 37
2019-07-30 14:00:00 25.1 9 Sudeste 35 Oeste 0 -- -- 39
2019-07-30 13:00:00 23.9 12 Noroeste 29 Oeste 0 -- -- 43
2019-07-30 12:00:00 21.6 8 Oeste 33 Oeste 0 -- -- 48
2019-07-30 11:00:00 19.4 17 Oeste 41 Noroeste 0 -- -- 55
2019-07-30 10:00:00 17.7 17 Oeste 42 Oeste 0 -- -- 62
2019-07-30 09:00:00 16.4 27 Oeste 44 Oeste 0 -- -- 67
2019-07-30 08:00:00 15.5 23 Oeste 72 Oeste 0 -- -- 71
2019-07-30 07:00:00 15.5 30 Oeste 62 Noroeste 0 -- -- 72
2019-07-30 06:00:00 16.1 27 Oeste 44 Oeste 0 -- -- 70
2019-07-30 05:00:00 16.9 20 Oeste 39 Oeste 0 -- -- 69
2019-07-30 04:00:00 18.4 8 Oeste 27 Noroeste 0 -- -- 66
2019-07-30 03:00:00 19.5 11 Oeste 41 Oeste 0 -- -- 61
2019-07-30 02:00:00 20.7 20 Noroeste 40 Oeste 0 -- -- 58
2019-07-30 01:00:00 23.2 21 Noroeste 40 Noroeste 0 -- -- 50
2019-07-30 00:00:00 23.3 9 Sur 19 Sur 0 -- -- 54
2019-07-29 23:00:00 23.7 11 Sur 15 Sudeste 0 -- -- 55
2019-07-29 22:00:00 24.1 12 Sudeste 26 Sudeste 0 -- -- 59
2019-07-29 21:00:00 26.1 13 Sudeste 26 Sudeste 0 -- -- 53
2019-07-29 20:00:00 28.8 10 Sudeste 30 Este 0 -- -- 45
2019-07-29 19:00:00 29.9 19 Este 37 Este 0 -- -- 41
2019-07-29 18:00:00 32.2 20 Este 35 Este 0 -- -- 36
2019-07-29 17:00:00 32.4 8 Sudeste 41 Este 0 -- -- 25
2019-07-29 16:00:00 32.3 10 Este 38 Este 0 -- -- 26
2019-07-29 15:00:00 31.7 9 Este 39 Este 0 -- -- 27
2019-07-29 14:00:00 30.8 14 Este 36 Este 0 -- -- 29
2019-07-29 13:00:00 29.7 9 Sudeste 29 Este 0 -- -- 30
2019-07-29 12:00:00 27.6 9 Norte 18 Norte 0 -- -- 35
2019-07-29 11:00:00 25.7 5 Nordeste 13 Este 0 -- -- 39
2019-07-29 10:00:00 23 3 Este 12 Nordeste 0 -- -- 45
2019-07-29 09:00:00 20 4 Este 9 Este 0 -- -- 51
2019-07-29 08:00:00 16.5 3 Este 10 Este 0 -- -- 61
2019-07-29 07:00:00 15.5 6 Sudeste 11 Sudeste 0 -- -- 64
2019-07-29 06:00:00 15.1 6 Sudeste 10 Sudeste 0 -- -- 65
2019-07-29 05:00:00 15.7 5 Este 8 Sudeste 0 -- -- 63
2019-07-29 04:00:00 16.5 0 Calma 5 Este 0 -- -- 59
2019-07-29 03:00:00 17.8 3 Este 5 Este 0 -- -- 54
2019-07-29 02:00:00 18.5 0 Calma 3 Este 0 -- -- 52
2019-07-29 01:00:00 19.5 0 Calma 6 Sudeste 0 -- -- 49
2019-07-29 00:00:00 20.7 0 Calma 8 Este 0 -- -- 45
2019-07-28 23:00:00 21.5 3 Nordeste 12 Norte 0 -- -- 42
2019-07-28 22:00:00 22.1 6 Nordeste 19 Nordeste 0 -- -- 41
2019-07-28 21:00:00 23 7 Este 25 Este 0 -- -- 38
2019-07-28 20:00:00 24.2 18 Este 36 Este 0 -- -- 35
2019-07-28 19:00:00 25.4 16 Este 32 Este 0 -- -- 33
2019-07-28 18:00:00 26.3 9 Este 32 Este 0 -- -- 32
2019-07-28 17:00:00 26.5 17 Oeste 31 Oeste 0 -- -- 31
2019-07-28 16:00:00 25.5 8 Sudoeste 41 Oeste 0 -- -- 34
2019-07-28 15:00:00 24.9 12 Oeste 33 Oeste 0 -- -- 35
2019-07-28 14:00:00 23.3 11 Noroeste 35 Noroeste 0 -- -- 38
2019-07-28 13:00:00 21.7 13 Noroeste 36 Oeste 0 -- -- 42
2019-07-28 12:00:00 20.2 16 Noroeste 47 Noroeste 0 -- -- 46
2019-07-28 11:00:00 18.6 23 Noroeste 60 Norte 0 -- -- 50
2019-07-28 10:00:00 17.5 16 Noroeste 42 Noroeste 0 -- -- 57
2019-07-28 09:00:00 15.8 16 Oeste 44 Oeste 0 -- -- 62
2019-07-28 08:00:00 14.2 11 Oeste 30 Oeste 0 -- -- 68
2019-07-28 07:00:00 13.5 5 Sudoeste 22 Oeste 0 -- -- 70
2019-07-28 06:00:00 13.6 12 Oeste 34 Oeste 0 -- -- 70
2019-07-28 05:00:00 14.1 18 Oeste 52 Noroeste 0 -- -- 67
2019-07-28 04:00:00 14.4 25 Oeste 53 Noroeste 0 -- -- 68
2019-07-28 03:00:00 14.6 31 Oeste 59 Oeste 0 -- -- 69
2019-07-28 02:00:00 14.8 24 Oeste 49 Noroeste 0 -- -- 69
2019-07-28 01:00:00 15.1 10 Oeste 40 Noroeste 0 -- -- 70
2019-07-28 00:00:00 15.7 11 Oeste 38 Oeste 0 -- -- 67
2019-07-27 23:00:00 16.5 16 Oeste 42 Noroeste 0 -- -- 65
2019-07-26 12:00:00 -- -- -- -- -- -- -- -- --
2019-07-26 11:00:00 23.8 3 Este 10 Nordeste 0 -- -- 61
2019-07-26 10:00:00 23.3 3 Sur 27 Oeste 0 -- -- 60
2019-07-26 09:00:00 21.7 11 Oeste 28 Noroeste 0.4 -- -- 61
2019-07-26 08:00:00 23.9 6 Nordeste 18 Nordeste 0 -- -- 40
2019-07-26 07:00:00 23.2 3 Oeste 5 Noroeste 0 -- -- 37
2019-07-26 06:00:00 23.5 0 Calma 7 Sudeste 0 -- -- 36
2019-07-26 05:00:00 23.1 3 Sur 14 Sudoeste 0 -- -- 39
2019-07-26 04:00:00 23.5 6 Sudoeste 14 Sur 0 -- -- 39
2019-07-26 03:00:00 24.3 9 Sudeste 15 Sudeste 0 -- -- 37
2019-07-26 02:00:00 25.3 9 Sudeste 20 Sudoeste 0 -- -- 36
2019-07-26 01:00:00 25.4 11 Sur 20 Sudoeste 0 -- -- 37
2019-07-26 00:00:00 25.4 11 Sur 16 Sur 0 -- -- 42
2019-07-25 23:00:00 26.4 6 Sudeste 15 Sudeste 0 -- -- 40
2019-07-25 22:00:00 27.6 6 Sudeste 13 Sudeste 0 -- -- 38
2019-07-25 21:00:00 28.4 9 Este 20 Sudeste 0 -- -- 36
2019-07-25 20:00:00 28.9 13 Este 27 Este 0 -- -- 38
2019-07-25 19:00:00 30 13 Nordeste 26 Este 0 -- -- 38
2019-07-25 18:00:00 30.4 12 Este 26 Sur 0 -- -- 35
2019-07-25 17:00:00 31.2 18 Sur 34 Sur 0 -- -- 31
2019-07-25 16:00:00 34.5 18 Sudeste 50 Este 0 -- -- 25
2019-07-25 15:00:00 35.9 21 Este 43 Este 0 -- -- 21
2019-07-25 14:00:00 35.3 17 Este 40 Este 0 -- -- 22
2019-07-25 13:00:00 35.2 19 Este 37 Este 0 -- -- 22
2019-07-25 12:00:00 34.2 10 Nordeste 21 Este 0 -- -- 22
2019-07-25 11:00:00 31.8 6 Sudeste 14 Sur 0 -- -- 25
2019-07-25 10:00:00 28.8 2 Nordeste 6 Este 0 -- -- 27
2019-07-25 09:00:00 26.1 3 Sudeste 8 Sudeste 0 -- -- 31
2019-07-25 08:00:00 23.9 3 Sudeste 8 Este 0 -- -- 34
2019-07-25 07:00:00 23.5 2 Sudeste 13 Sudeste 0 -- -- 35
2019-07-25 06:00:00 23.5 6 Sudeste 13 Este 0 -- -- 35
2019-07-25 05:00:00 24 2 Sur 6 Sudeste 0 -- -- 35
2019-07-25 04:00:00 24.3 5 Sudeste 11 Sudeste 0 -- -- 35
2019-07-25 03:00:00 24.5 5 Sur 10 Sudeste 0 -- -- 34
2019-07-25 02:00:00 25.8 3 Sudoeste 9 Sudoeste 0 -- -- 32
2019-07-25 01:00:00 26.4 5 Sudeste 16 Sur 0 -- -- 33
2019-07-25 00:00:00 27.3 9 Sur 21 Sur 0 -- -- 33
2019-07-24 23:00:00 27.9 15 Sur 26 Sudeste 0 -- -- 33
2019-07-24 22:00:00 28.9 11 Sur 29 Sur 0 -- -- 31
2019-07-24 21:00:00 30.6 19 Sur 31 Este 0 -- -- 27
2019-07-24 20:00:00 32.1 14 Sudeste 45 Sudeste 0 -- -- 25
2019-07-24 19:00:00 33.2 24 Este 47 Este 0 -- -- 23
2019-07-24 18:00:00 34.5 22 Este 41 Este 0 -- -- 21
2019-07-24 17:00:00 35.5 24 Este 46 Este 0 -- -- 19
2019-07-24 16:00:00 36.1 27 Este 45 Este 0 -- -- 21
2019-07-24 15:00:00 37 15 Sudeste 35 Sur 0 -- -- 18
2019-07-24 14:00:00 36.8 13 Sur 31 Este 0 -- -- 19
2019-07-24 13:00:00 35.9 7 Sur 22 Este 0 -- -- 19
2019-07-24 12:00:00 33.9 5 Sur 14 Este 0 -- -- 23
2019-07-24 11:00:00 31.5 4 Este 10 Este 0 -- -- 26
2019-07-24 10:00:00 27.9 2 Este 7 Este 0 -- -- 32
2019-07-24 09:00:00 24.5 5 Este 11 Este 0 -- -- 36
2019-07-24 08:00:00 21.8 8 Nordeste 9 Este 0 -- -- 40
2019-07-24 07:00:00 21.7 8 Este 10 Este 0 -- -- 40
2019-07-24 06:00:00 22.1 6 Este 12 Este 0 -- -- 39
2019-07-24 05:00:00 24.2 3 Este 6 Nordeste 0 -- -- 35
2019-07-24 04:00:00 24.7 2 Sur 14 Oeste 0 -- -- 35
2019-07-24 03:00:00 25.3 6 Norte 12 Norte 0 -- -- 33
2019-07-24 02:00:00 25.7 3 Sur 12 Este 0 -- -- 33
2019-07-24 01:00:00 25.9 3 Sudeste 15 Oeste 0 -- -- 34
2019-07-24 00:00:00 26.6 3 Sur 13 Sur 0 -- -- 32
2019-07-23 23:00:00 27.9 6 Sudeste 18 Sur 0 -- -- 31
2019-07-23 22:00:00 29.1 6 Sudeste 19 Sur 0 -- -- 28
2019-07-23 21:00:00 30.9 11 Sudeste 32 Sudeste 0 -- -- 25
2019-07-23 20:00:00 32.8 15 Sudeste 33 Sur 0 -- -- 22
2019-07-23 19:00:00 34.6 15 Sudeste 39 Sur 0 -- -- 20
2019-07-23 18:00:00 35.6 18 Sudeste 41 Este 0 -- -- 18
2019-07-23 17:00:00 36.1 17 Este 39 Este 0 -- -- 18
2019-07-23 16:00:00 36.5 18 Sudeste 40 Sudeste 0 -- -- 18
2019-07-23 15:00:00 36.8 18 Sudeste 43 Este 0 -- -- 18
2019-07-23 14:00:00 36.6 15 Este 42 Este 0 -- -- 18
2019-07-23 13:00:00 34.8 10 Norte 22 Este 0 -- -- 21
2019-07-23 12:00:00 33.2 6 Sudeste 13 Este 0 -- -- 22
2019-07-23 11:00:00 31.8 4 Sudeste 9 Este 0 -- -- 23
2019-07-23 10:00:00 29.7 2 Sur 6 Este 0 -- -- 26
2019-07-23 09:00:00 25.3 0 Calma 3 Este 0 -- -- 31
2019-07-23 08:00:00 24.3 0 Calma 2 Norte 0 -- -- 31
2019-07-23 07:00:00 23.3 2 Sudoeste 5 Este 0 -- -- 31
2019-07-23 06:00:00 24.2 0 Calma 6 Oeste 0 -- -- 29
2019-07-23 05:00:00 24.5 0 Calma 8 Este 0 -- -- 29
2019-07-23 04:00:00 24.8 3 Este 10 Sudeste 0 -- -- 28
2019-07-23 03:00:00 25.1 6 Este 10 Este 0 -- -- 27
2019-07-23 02:00:00 25.1 3 Sudeste 13 Sur 0 -- -- 26
2019-07-23 01:00:00 25.6 8 Sudeste 13 Sudeste 0 -- -- 25
2019-07-23 00:00:00 25.7 7 Sudeste 17 Sur 0 -- -- 27
2019-07-22 23:00:00 26.2 10 Sudeste 23 Sur 0 -- -- 27
2019-07-22 22:00:00 27.2 10 Sudeste 30 Sudeste 0 -- -- 25
2019-07-22 21:00:00 28.8 14 Sudeste 28 Este 0 -- -- 25
2019-07-22 20:00:00 30.6 17 Sudeste 35 Este 0 -- -- 27
2019-07-22 19:00:00 32.5 17 Este 34 Sudeste 0 -- -- 23
2019-07-22 18:00:00 34.4 19 Este 40 Este 0 -- -- 21
2019-07-22 17:00:00 35.6 20 Sudeste 35 Sudeste 0 -- -- 19
2019-07-22 16:00:00 33.8 16 Este 37 Sudeste 0 -- -- 20
2019-07-22 15:00:00 35.8 22 Este 40 Sudeste 0 -- -- 17
2019-07-22 14:00:00 35.8 14 Sudeste 35 Este 0 -- -- 15
2019-07-22 13:00:00 34.9 21 Este 35 Este 0 -- -- 15
2019-07-22 12:00:00 33.4 20 Este 30 Este 0 -- -- 19
2019-07-22 11:00:00 30.6 5 Sudeste 13 Este 0 -- -- 22
2019-07-22 10:00:00 27.5 4 Este 8 Nordeste 0 -- -- 25
2019-07-22 09:00:00 24 4 Este 8 Nordeste 0 -- -- 32
2019-07-22 08:00:00 21.2 2 Nordeste 7 Este 0 -- -- 35
2019-07-22 07:00:00 20.9 4 Este 11 Este 0 -- -- 35
2019-07-22 06:00:00 21.6 5 Este 10 Este 0 -- -- 35
2019-07-22 05:00:00 22.7 4 Este 8 Sudeste 0 -- -- 33
2019-07-22 04:00:00 24.3 2 Este 9 Sudoeste 0 -- -- 31
2019-07-22 03:00:00 25 6 Noroeste 17 Sur 0 -- -- 26
2019-07-22 02:00:00 25.6 7 Sudeste 15 Sur 0 -- -- 23
2019-07-22 01:00:00 25.4 8 Sur 18 Sudoeste 0 -- -- 28
2019-07-22 00:00:00 25.6 13 Sur 23 Sur 0 -- -- 36
2019-07-21 23:00:00 25.8 13 Sur 24 Sur 0 -- -- 46
2019-07-21 22:00:00 27.1 10 Sur 24 Sur 0 -- -- 42
2019-07-21 21:00:00 28.7 10 Sudeste 31 Sur 0 -- -- 37
2019-07-21 20:00:00 30.5 13 Sudeste 37 Sudeste 0 -- -- 34
2019-07-21 19:00:00 31.6 18 Este 35 Este 0 -- -- 34
2019-07-21 18:00:00 32.2 17 Sudeste 37 Sudeste 0 -- -- 33
2019-07-21 17:00:00 32.5 21 Este 44 Sudeste 0 -- -- 33
2019-07-21 16:00:00 33.2 18 Este 44 Este 0 -- -- 35
2019-07-21 15:00:00 32.8 21 Este 41 Este 0 -- -- 35
2019-07-21 14:00:00 32.1 20 Este 37 Este 0 -- -- 35
2019-07-21 13:00:00 30.9 6 Este 27 Este 0 -- -- 38
2019-07-21 12:00:00 28.4 7 Noroeste 18 Noroeste 0 -- -- 44
2019-07-21 11:00:00 26.3 4 Este 14 Este 0 -- -- 49
2019-07-21 10:00:00 23.9 4 Este 13 Este 0 -- -- 58
2019-07-21 09:00:00 22.1 2 Sudeste 5 Sudeste 0 -- -- 61
2019-07-21 08:00:00 20.6 3 Norte 9 Norte 0 -- -- 67
2019-07-21 07:00:00 20.6 3 Norte 8 Norte 0 -- -- 62
2019-07-21 06:00:00 22 4 Oeste 8 Noroeste 0 -- -- 50
2019-07-21 05:00:00 23 4 Noroeste 17 Noroeste 0 -- -- 54
2019-07-21 04:00:00 24.4 10 Noroeste 18 Oeste 0 -- -- 47
2019-07-21 03:00:00 25.3 6 Este 17 Sur 0 -- -- 35
2019-07-21 02:00:00 24.6 9 Sur 18 Sudeste 0 -- -- 39
2019-07-21 01:00:00 24.4 10 Sur 22 Sur 0 -- -- 42
2019-07-21 00:00:00 24.6 13 Sur 24 Sur 0 -- -- 45
2019-07-20 23:00:00 25.1 13 Sur 33 Sur 0 -- -- 47
2019-07-20 22:00:00 26 13 Sudeste 28 Sur 0 -- -- 46
2019-07-20 21:00:00 27.8 13 Sudeste 34 Sur 0 -- -- 42
2019-07-20 20:00:00 30.1 16 Sudeste 34 Sur 0 -- -- 37
2019-07-20 19:00:00 31.4 16 Sudeste 44 Este 0 -- -- 34
2019-07-20 18:00:00 32.4 19 Sudeste 40 Este 0 -- -- 34
2019-07-20 17:00:00 33.6 18 Este 39 Este 0 -- -- 33
2019-07-20 16:00:00 34.3 17 Este 45 Este 0 -- -- 34
2019-07-20 15:00:00 35.4 13 Este 39 Este 0 -- -- 28
2019-07-20 14:00:00 34.3 12 Este 35 Este 0 -- -- 29
2019-07-20 13:00:00 34.2 10 Este 23 Este 0 -- -- 25
2019-07-20 12:00:00 32.4 9 Este 19 Este 0 -- -- 27
2019-07-20 11:00:00 29.7 6 Norte 14 Norte 0 -- -- 32
2019-07-20 10:00:00 27 3 Sur 7 Sudeste 0 -- -- 36
2019-07-20 09:00:00 24.2 2 Sur 7 Sudoeste 0 -- -- 41
2019-07-20 08:00:00 22.3 0 Calma 5 Sudeste 0 -- -- 46
2019-07-20 07:00:00 22.3 3 Este 5 Este 0 -- -- 45
2019-07-20 06:00:00 21.8 3 Oeste 9 Sur 0 -- -- 49
2019-07-20 05:00:00 22.4 2 Sur 8 Sudeste 0 -- -- 49
2019-07-20 04:00:00 22.4 5 Sudeste 10 Sur 0 -- -- 50
2019-07-20 03:00:00 22.4 6 Sur 12 Sur 0 -- -- 50
2019-07-20 02:00:00 22.8 7 Sur 14 Sur 0 -- -- 50
2019-07-20 01:00:00 23.1 8 Sur 17 Sudoeste 0 -- -- 50
2019-07-20 00:00:00 23.4 10 Sudoeste 14 Sudoeste 0 -- -- 49
2019-07-19 23:00:00 24 8 Sur 23 Sudeste 0 -- -- 48
2019-07-19 22:00:00 25.5 14 Sur 28 Sur 0 -- -- 45
2019-07-19 21:00:00 26.7 12 Este 26 Este 0 -- -- 45
2019-07-19 20:00:00 28.9 13 Sudeste 32 Este 0 -- -- 40
2019-07-19 19:00:00 30.5 14 Este 36 Sudeste 0 -- -- 36
2019-07-19 18:00:00 31.5 15 Este 33 Este 0 -- -- 34
2019-07-19 17:00:00 31.4 16 Este 40 Este 0 -- -- 34
2019-07-19 16:00:00 32.1 23 Este 37 Este 0 -- -- 38
2019-07-19 15:00:00 31.2 13 Este 36 Este 0 -- -- 35
2019-07-19 14:00:00 31.8 18 Nordeste 37 Nordeste 0 -- -- 36
2019-07-19 13:00:00 29.6 9 Nordeste 21 Este 0 -- -- 33
2019-07-19 12:00:00 28.3 6 Nordeste 17 Este 0 -- -- 34
2019-07-19 11:00:00 25.9 4 Norte 10 Este 0 -- -- 36
2019-07-19 10:00:00 24.1 4 Este 8 Este 0 -- -- 41
2019-07-19 09:00:00 21.2 0 Calma 4 Este 0 -- -- 50
2019-07-19 08:00:00 18.7 0 Calma 6 Nordeste 0 -- -- 53
2019-07-19 07:00:00 18.5 0 Calma 5 Este 0 -- -- 54
2019-07-19 06:00:00 19.6 0 Calma 3 Sudoeste 0 -- -- 50
2019-07-19 05:00:00 20.2 0 Calma 7 Oeste 0 -- -- 47
2019-07-19 04:00:00 20.8 3 Oeste 4 Noroeste 0 -- -- 45
2019-07-19 03:00:00 21.7 3 Sudeste 27 Oeste 0 -- -- 43
2019-07-19 02:00:00 22.9 12 Oeste 29 Oeste 0 -- -- 41
2019-07-19 01:00:00 23.4 14 Oeste 31 Oeste 0 -- -- 38
2019-07-19 00:00:00 24.3 5 Sur 17 Noroeste 0 -- -- 33